MHLC/LCE METAR and TAF weather

Enter ICAO airport designator
Station Type Date Time Source
MHLC METAR 2021/05/14 23:00 UTC NOAA

MHLC 142300Z 07015KT 9999 -RA SCT028TCU SCT080 27/24 Q1012 A2989 NOSIG


Station Type Date Time Source
MHLC Decoded METAR 2021/05/14 23:00 UTC NOAA

La Ceiba Airport , Honduras (MHLC) 15-44N 086-52W 26M
May 14, 2021 - 07:00 PM EDT / 2021.05.14 2300 UTC
Wind: from the ENE (070 degrees) at 17 MPH (15 KT):0
Visibility: greater than 7 mile(s):0
Sky conditions: partly cloudy
Weather: light rain; Towering cumulus clouds observed
Temperature: 80 F (27 C)
Dew Point: 75 F (24 C)
Relative Humidity: 83%
Pressure (altimeter): 29.89 in. Hg (1012 hPa)
ob: MHLC 142300Z 07015KT 9999 -RA SCT028TCU SCT080 27/24 Q1012 A2989 NOSIG
cycle: 23

Station Type Date Time Source
MHLC TAF 2021/05/14 18:59 UTC NOAA

TAF MHLC 141055Z 1418/1518 06015KT 9999 SCT024 FEW026CB TX32/1419Z TN22/1512Z
TEMPO 1420/1502 5000 -TSRA SCT026CB BKN080
BECMG 1502/1504 2000 RA
BECMG 1508/1510 11006KT 9999 NSW FEW024TCU SCT080
BECMG 1513/1515 FEW024

Example: see airport list